Available Gates

Last Updated:

Online Controllers

No controllers online.

Vancouver ATIS/METAR

CYVR 241600Z 10008KT 30SM FEW031 FEW052 BKN076 16/10 A3009 RMK SC1SC1AC6 SC TR SC TR SLP192